Time;durP1;ratioP1;P1;durP2;ratioP2;P2;SDS_P1;SDS_P2;PMS_P1;PMS_P2;Temp;Humidity;BMP_temperature;BMP_pressure;BME280_temperature;BME280_humidity;BME280_pressure;Samples;Min_cycle;Max_cycle;Signal;HPM_P1;HPM_P2
2022/09/16 00:04:40;;;;;;;6.73;6.13;;;17.20;99.90;;;;;;10389526;28;20246;-79
2022/09/16 00:09:43;;;;;;;6.50;6.10;;;17.20;99.90;;;;;;10413998;28;20214;-79
2022/09/16 00:14:46;;;;;;;8.10;6.70;;;17.30;99.90;;;;;;10390024;28;20636;-79
2022/09/16 00:19:49;;;;;;;5.97;5.47;;;17.30;99.90;;;;;;10407289;28;20222;-79
2022/09/16 00:24:52;;;;;;;6.40;6.00;;;17.30;99.90;;;;;;10387842;28;20226;-79
2022/09/16 00:29:54;;;;;;;7.00;6.47;;;17.30;99.90;;;;;;10406325;28;20238;-78
2022/09/16 00:34:56;;;;;;;7.13;6.63;;;17.30;99.90;;;;;;10388220;28;20199;-79
2022/09/16 00:40:00;;;;;;;6.17;5.77;;;17.30;99.90;;;;;;10411894;28;20241;-79
2022/09/16 00:45:04;;;;;;;6.10;5.60;;;17.30;99.90;;;;;;10395098;28;20214;-78
2022/09/16 00:50:10;;;;;;;5.90;5.53;;;17.30;99.90;;;;;;10412019;28;20213;-78
2022/09/16 00:55:17;;;;;;;6.63;5.40;;;17.20;99.90;;;;;;10396501;28;20651;-78
2022/09/16 01:00:19;;;;;;;9.23;6.53;;;17.10;99.90;;;;;;10394215;28;20622;-79
2022/09/16 01:05:24;;;;;;;6.50;6.10;;;17.10;99.90;;;;;;10394712;28;20203;-79
2022/09/16 01:10:28;;;;;;;6.00;5.50;;;17.00;99.90;;;;;;10407198;28;20217;-79
2022/09/16 01:15:37;;;;;;;6.20;5.70;;;17.00;99.90;;;;;;10393097;28;20646;-79
2022/09/16 01:21:12;;;;;;;7.80;6.73;;;17.00;99.90;;;;;;10409057;28;20229;-79
2022/09/16 01:26:35;;;;;;;6.53;6.07;;;16.90;99.90;;;;;;10386908;28;20282;-79
2022/09/16 01:31:45;;;;;;;7.27;6.70;;;16.90;99.90;;;;;;10413134;28;20217;-79
2022/09/16 01:36:54;;;;;;;7.17;6.47;;;16.90;99.90;;;;;;10382772;28;20230;-79
2022/09/16 01:42:15;;;;;;;6.97;6.37;;;17.00;99.90;;;;;;10414414;28;20218;-79
2022/09/16 01:47:25;;;;;;;6.93;6.33;;;17.00;99.90;;;;;;10380124;28;20544;-79
2022/09/16 01:52:36;;;;;;;7.20;6.60;;;17.00;99.90;;;;;;10416823;28;20212;-79
2022/09/16 01:57:45;;;;;;;7.83;7.13;;;16.90;99.90;;;;;;10378456;28;20667;-79
2022/09/16 02:02:54;;;;;;;7.30;6.80;;;16.90;99.90;;;;;;10417012;28;20232;-78
2022/09/16 02:08:02;;;;;;;7.13;6.53;;;16.90;99.90;;;;;;10376401;28;20219;-79
2022/09/16 02:13:10;;;;;;;7.83;7.13;;;16.90;99.90;;;;;;10376475;28;20218;-79
2022/09/16 02:18:19;;;;;;;6.97;6.40;;;17.00;99.90;;;;;;10384883;28;20212;-79
2022/09/16 02:23:25;;;;;;;7.67;7.07;;;17.00;99.90;;;;;;10425628;28;20573;-79
2022/09/16 02:28:30;;;;;;;6.23;5.73;;;17.00;99.90;;;;;;10384186;28;20283;-79
2022/09/16 02:33:40;;;;;;;5.57;5.17;;;17.00;99.90;;;;;;10407052;28;20228;-79
2022/09/16 02:38:46;;;;;;;6.40;5.90;;;17.00;99.90;;;;;;10391251;28;20214;-78
2022/09/16 02:43:49;;;;;;;6.70;5.80;;;17.00;99.90;;;;;;10410729;28;20213;-79
2022/09/16 02:49:03;;;;;;;8.70;6.43;;;17.00;99.90;;;;;;10383949;28;20257;-79
2022/09/16 02:54:14;;;;;;;5.47;5.00;;;17.00;99.90;;;;;;10421101;28;20251;-79
2022/09/16 02:59:17;;;;;;;5.90;5.50;;;16.90;99.90;;;;;;10394895;28;20206;-79
2022/09/16 03:04:21;;;;;;;6.27;5.67;;;16.90;99.90;;;;;;10418597;28;20309;-79
2022/09/16 03:09:24;;;;;;;6.20;5.70;;;16.90;99.90;;;;;;10387489;28;20229;-79
2022/09/16 03:14:46;;;;;;;5.50;5.10;;;16.80;99.90;;;;;;10412689;28;20209;-78
2022/09/16 03:19:59;;;;;;;5.83;5.00;;;16.70;99.90;;;;;;10375497;28;20237;-78
2022/09/16 03:25:10;;;;;;;6.80;5.80;;;16.70;99.90;;;;;;10380930;28;20196;-78
2022/09/16 03:30:13;;;;;;;6.40;5.70;;;16.60;99.90;;;;;;10408999;28;20679;-78
2022/09/16 03:35:21;;;;;;;5.67;5.17;;;16.60;99.90;;;;;;10365925;28;20196;-78
2022/09/16 03:40:24;;;;;;;5.40;5.00;;;16.60;99.90;;;;;;10411402;28;20301;-78
2022/09/16 03:45:26;;;;;;;5.87;5.40;;;16.60;99.90;;;;;;10380495;28;20320;-78
2022/09/16 03:50:29;;;;;;;7.47;6.53;;;16.60;99.90;;;;;;10406869;28;20226;-79
2022/09/16 03:55:31;;;;;;;7.30;6.90;;;16.60;99.90;;;;;;10379367;28;20201;-78
2022/09/16 04:00:34;;;;;;;7.20;6.63;;;16.60;99.90;;;;;;10407664;28;20278;-78
2022/09/16 04:05:37;;;;;;;7.40;6.77;;;16.60;99.90;;;;;;10377279;28;20194;-79
2022/09/16 04:10:39;;;;;;;7.20;6.70;;;16.60;99.90;;;;;;10410943;28;20218;-79
2022/09/16 04:15:41;;;;;;;6.70;6.30;;;16.60;99.90;;;;;;10384610;28;20190;-79
2022/09/16 04:20:45;;;;;;;7.03;6.53;;;16.60;99.90;;;;;;10400116;28;20239;-79
2022/09/16 04:25:54;;;;;;;5.90;5.30;;;16.60;99.90;;;;;;10383099;28;20220;-78
2022/09/16 04:31:00;;;;;;;7.20;5.70;;;16.60;99.90;;;;;;10416938;28;20206;-79
2022/09/16 04:36:05;;;;;;;6.90;6.30;;;16.60;99.90;;;;;;10384894;28;20194;-79
2022/09/16 04:41:10;;;;;;;7.13;6.13;;;16.60;99.90;;;;;;10416391;28;20215;-79
2022/09/16 04:46:12;;;;;;;6.80;6.27;;;16.60;99.90;;;;;;10386272;28;20192;-79
2022/09/16 04:51:16;;;;;;;6.40;6.00;;;16.60;99.90;;;;;;10416986;28;20288;-78
2022/09/16 04:56:21;;;;;;;6.10;5.70;;;16.50;99.90;;;;;;10380656;28;20283;-78
2022/09/16 05:01:24;;;;;;;6.07;5.60;;;16.50;99.90;;;;;;10397465;28;20225;-78
2022/09/16 05:06:29;;;;;;;6.83;5.03;;;16.50;99.90;;;;;;10382469;28;20193;-78
2022/09/16 05:11:33;;;;;;;6.33;5.83;;;16.50;99.90;;;;;;10397060;28;20333;-78
2022/09/16 05:16:35;;;;;;;5.90;5.57;;;16.50;99.90;;;;;;10379155;28;20190;-78
2022/09/16 05:21:40;;;;;;;6.37;5.90;;;16.40;99.90;;;;;;10413834;28;20229;-78
2022/09/16 05:26:43;;;;;;;7.00;6.40;;;16.40;99.90;;;;;;10377336;28;20579;-78
2022/09/16 05:31:46;;;;;;;8.23;6.87;;;16.30;99.90;;;;;;10413929;28;20212;-78
2022/09/16 05:36:52;;;;;;;8.37;7.77;;;16.20;99.90;;;;;;10378726;28;20568;-79
2022/09/16 05:41:56;;;;;;;9.63;9.03;;;16.10;99.90;;;;;;10413920;28;20229;-78
2022/09/16 05:46:58;;;;;;;10.53;9.83;;;16.10;99.90;;;;;;10376922;28;20199;-78
2022/09/16 05:52:02;;;;;;;10.93;9.80;;;16.00;99.90;;;;;;10414224;28;20216;-78
2022/09/16 05:57:04;;;;;;;10.97;10.23;;;15.90;99.90;;;;;;10375880;28;20199;-77
2022/09/16 06:02:06;;;;;;;10.73;9.93;;;15.90;99.90;;;;;;10411382;28;20263;-77
2022/09/16 06:07:10;;;;;;;12.30;11.40;;;15.90;99.90;;;;;;10372276;28;20195;-78
2022/09/16 06:12:12;;;;;;;13.80;12.80;;;15.80;99.90;;;;;;10412010;28;20271;-79
2022/09/16 06:17:14;;;;;;;14.40;13.40;;;15.70;99.90;;;;;;10372996;28;20193;-78
2022/09/16 06:22:17;;;;;;;13.67;12.87;;;15.60;99.90;;;;;;10412289;28;20214;-78
2022/09/16 06:27:19;;;;;;;14.87;13.53;;;15.60;99.90;;;;;;10378536;28;20198;-78
2022/09/16 06:32:21;;;;;;;15.17;14.07;;;15.50;99.90;;;;;;10416045;28;20322;-78
2022/09/16 06:37:25;;;;;;;15.00;14.00;;;15.50;99.90;;;;;;10373828;28;20285;-78
2022/09/16 06:42:27;;;;;;;12.40;11.40;;;15.50;99.90;;;;;;10414233;28;20233;-78
2022/09/16 06:47:34;;;;;;;13.60;12.50;;;15.50;99.90;;;;;;10373395;28;20303;-78
2022/09/16 06:52:37;;;;;;;13.03;12.17;;;15.40;99.90;;;;;;10415106;28;20214;-78
2022/09/16 06:57:39;;;;;;;13.17;12.20;;;15.50;99.90;;;;;;10415231;28;20273;-78
2022/09/16 07:02:41;;;;;;;10.63;9.80;;;15.50;99.90;;;;;;10375734;28;20687;-78
2022/09/16 07:07:45;;;;;;;11.87;11.07;;;15.50;99.90;;;;;;10412135;28;20204;-78
2022/09/16 07:12:47;;;;;;;13.93;12.80;;;15.50;99.90;;;;;;10383364;28;20218;-77
2022/09/16 07:17:54;;;;;;;14.97;14.00;;;15.50;99.90;;;;;;10414190;28;20523;-78
2022/09/16 07:22:58;;;;;;;15.70;14.73;;;15.40;99.90;;;;;;10374962;28;20218;-78
2022/09/16 07:28:02;;;;;;;16.10;15.00;;;15.40;99.90;;;;;;10409259;28;20605;-78
2022/09/16 07:33:04;;;;;;;17.37;16.30;;;15.30;99.90;;;;;;10374078;28;20218;-78
2022/09/16 07:38:11;;;;;;;18.30;16.93;;;15.20;99.90;;;;;;10410296;28;20202;-78
2022/09/16 07:43:13;;;;;;;18.27;16.93;;;15.20;99.90;;;;;;10372517;28;20226;-78
2022/09/16 07:48:15;;;;;;;17.20;15.67;;;15.20;99.90;;;;;;10416750;28;20198;-78
2022/09/16 07:53:18;;;;;;;16.70;15.80;;;15.30;99.90;;;;;;10383942;28;20611;-78
2022/09/16 07:58:21;;;;;;;15.27;14.10;;;15.20;99.90;;;;;;10417161;28;20251;-78
2022/09/16 08:03:23;;;;;;;17.13;16.03;;;15.20;99.90;;;;;;10387092;28;20211;-78
2022/09/16 08:08:26;;;;;;;15.10;13.90;;;15.10;99.90;;;;;;10415682;28;20214;-78
2022/09/16 08:13:31;;;;;;;17.20;16.07;;;15.10;99.90;;;;;;10385479;28;20277;-78
2022/09/16 08:18:33;;;;;;;18.90;17.80;;;15.10;99.90;;;;;;10415540;28;20576;-78
2022/09/16 08:23:37;;;;;;;17.17;15.80;;;15.10;99.90;;;;;;10385584;28;20214;-78
2022/09/16 08:28:40;;;;;;;18.27;16.97;;;15.10;99.90;;;;;;10415600;28;20704;-78
2022/09/16 08:33:43;;;;;;;21.13;19.60;;;15.20;99.90;;;;;;10384871;28;20191;-77
2022/09/16 08:38:47;;;;;;;20.77;19.40;;;15.20;99.90;;;;;;10396741;28;20300;-78
2022/09/16 08:43:59;;;;;;;21.70;20.07;;;15.30;99.90;;;;;;10383524;28;20256;-78
2022/09/16 08:49:19;;;;;;;15.13;13.70;;;15.30;99.90;;;;;;10415009;28;20271;-78
2022/09/16 08:54:28;;;;;;;20.67;19.17;;;15.40;99.90;;;;;;10380872;28;20203;-78
2022/09/16 08:59:35;;;;;;;20.73;19.23;;;15.50;99.90;;;;;;10413590;28;20647;-78
2022/09/16 09:04:37;;;;;;;19.83;18.60;;;15.60;99.90;;;;;;10379849;28;20218;-78
2022/09/16 09:09:50;;;;;;;19.67;18.27;;;15.70;99.90;;;;;;10414349;28;20328;-78
2022/09/16 09:15:07;;;;;;;17.07;15.87;;;15.90;99.90;;;;;;10380681;28;20570;-78
2022/09/16 09:20:20;;;;;;;14.90;13.90;;;16.00;99.90;;;;;;10361479;28;20222;-77
2022/09/16 09:25:32;;;;;;;15.53;14.33;;;16.10;99.90;;;;;;10379780;28;20229;-77
2022/09/16 09:30:36;;;;;;;13.23;12.43;;;16.30;99.90;;;;;;10417340;28;20214;-78
2022/09/16 09:35:55;;;;;;;12.67;11.67;;;16.30;99.90;;;;;;10380332;28;20547;-78
2022/09/16 09:41:03;;;;;;;8.77;8.07;;;16.40;99.90;;;;;;10420174;28;20249;-78
2022/09/16 09:46:09;;;;;;;9.57;8.77;;;16.50;99.90;;;;;;10387327;28;20197;-77
2022/09/16 09:51:19;;;;;;;6.97;6.37;;;16.50;99.90;;;;;;10419776;28;20238;-78
2022/09/16 09:56:27;;;;;;;9.67;9.07;;;16.60;99.90;;;;;;10388239;28;20551;-78
2022/09/16 10:01:29;;;;;;;7.73;7.03;;;16.70;99.90;;;;;;10419409;28;20378;-78
2022/09/16 10:06:35;;;;;;;9.80;9.07;;;16.80;99.90;;;;;;10386691;28;20555;-77
2022/09/16 10:11:48;;;;;;;9.10;8.50;;;16.80;99.90;;;;;;10416600;28;20223;-78
2022/09/16 10:16:52;;;;;;;10.97;10.17;;;16.80;99.90;;;;;;10386207;28;20194;-78
2022/09/16 10:21:56;;;;;;;8.93;8.40;;;16.90;99.90;;;;;;10421458;28;20223;-78
2022/09/16 10:27:02;;;;;;;8.53;7.40;;;16.90;99.90;;;;;;10387637;28;20201;-78
2022/09/16 10:32:08;;;;;;;8.47;7.73;;;16.90;99.90;;;;;;10415260;28;20203;-78
2022/09/16 10:37:17;;;;;;;9.17;8.67;;;16.90;99.90;;;;;;10385637;28;20186;-78
2022/09/16 10:42:24;;;;;;;8.13;7.63;;;16.90;99.90;;;;;;10414479;28;20225;-78
2022/09/16 10:47:28;;;;;;;7.83;7.40;;;17.00;99.90;;;;;;10386206;28;20284;-78
2022/09/16 10:52:40;;;;;;;8.40;7.70;;;17.10;99.90;;;;;;10414300;28;20621;-78
2022/09/16 10:57:44;;;;;;;8.90;8.20;;;17.20;99.90;;;;;;10382369;28;20289;-78
2022/09/16 11:03:17;;;;;;;7.40;7.00;;;17.20;99.90;;;;;;10405332;28;20305;-78
2022/09/16 11:08:32;;;;;;;6.70;6.30;;;17.20;99.90;;;;;;10382391;28;20284;-79
2022/09/16 11:13:46;;;;;;;7.40;7.00;;;17.10;99.90;;;;;;10400614;28;20198;-78
2022/09/16 11:18:57;;;;;;;6.90;6.50;;;17.20;99.90;;;;;;10388362;28;20237;-78
2022/09/16 11:24:14;;;;;;;7.03;6.43;;;17.20;99.90;;;;;;10400326;28;20577;-78
2022/09/16 11:29:34;;;;;;;6.50;6.10;;;17.20;99.90;;;;;;10389477;28;20585;-78
2022/09/16 11:34:49;;;;;;;5.67;5.30;;;17.20;99.90;;;;;;10395186;28;20241;-78
2022/09/16 11:40:05;;;;;;;7.10;6.50;;;17.20;99.90;;;;;;10391964;28;20244;-78
2022/09/16 11:45:22;;;;;;;5.10;4.70;;;17.20;99.90;;;;;;10390784;28;20244;-78
2022/09/16 11:50:37;;;;;;;4.43;4.00;;;17.30;99.90;;;;;;10395554;28;20348;-78
2022/09/16 11:55:49;;;;;;;5.77;5.27;;;17.40;99.90;;;;;;10390030;28;20189;-78
2022/09/16 12:00:56;;;;;;;7.97;5.17;;;17.50;99.90;;;;;;10397187;28;20244;-78
2022/09/16 12:06:04;;;;;;;5.53;4.00;;;17.70;99.90;;;;;;10388613;28;20633;-78
2022/09/16 12:11:18;;;;;;;5.27;3.97;;;17.90;99.90;;;;;;10397009;28;20225;-78
2022/09/16 12:16:30;;;;;;;4.10;2.80;;;18.10;99.90;;;;;;10386247;28;20572;-78
2022/09/16 12:21:37;;;;;;;4.73;4.33;;;18.30;99.90;;;;;;10399799;28;20615;-78
2022/09/16 12:26:43;;;;;;;4.40;3.43;;;18.50;99.90;;;;;;10385372;28;20735;-78
2022/09/16 12:31:52;;;;;;;6.87;3.60;;;18.50;99.90;;;;;;10403400;28;20210;-78
2022/09/16 12:37:00;;;;;;;4.10;3.80;;;18.50;99.90;;;;;;10390231;28;20658;-78
2022/09/16 12:42:21;;;;;;;4.20;3.80;;;18.50;99.90;;;;;;10407855;28;20642;-78
2022/09/16 12:47:44;;;;;;;4.20;3.90;;;18.40;99.90;;;;;;10387608;28;20206;-78
2022/09/16 12:53:19;;;;;;;3.77;3.57;;;18.40;99.90;;;;;;10394635;28;20216;-78
2022/09/16 12:58:51;;;;;;;4.07;3.73;;;18.50;99.90;;;;;;10379410;28;20206;-78
2022/09/16 13:03:57;;;;;;;4.57;2.43;;;18.50;99.90;;;;;;10378350;28;20230;-79
2022/09/16 13:09:15;;;;;;;4.07;3.80;;;18.60;99.90;;;;;;10377635;28;20574;-78
2022/09/16 13:14:22;;;;;;;4.47;4.17;;;18.60;99.90;;;;;;10415983;28;20186;-78
2022/09/16 13:19:37;;;;;;;9.00;6.43;;;18.60;99.90;;;;;;10379454;28;20294;-78
2022/09/16 13:24:43;;;;;;;5.30;4.80;;;18.50;99.90;;;;;;10416201;28;20217;-78
2022/09/16 13:29:45;;;;;;;3.90;3.70;;;18.40;99.90;;;;;;10380271;28;20655;-78
2022/09/16 13:34:59;;;;;;;4.50;4.20;;;18.30;99.90;;;;;;10414134;28;20191;-79
2022/09/16 13:40:18;;;;;;;3.77;3.47;;;18.20;99.90;;;;;;10379323;28;20213;-78
2022/09/16 13:45:34;;;;;;;4.43;4.10;;;18.10;99.90;;;;;;10408111;28;20218;-78
2022/09/16 13:50:42;;;;;;;4.70;4.40;;;18.20;99.90;;;;;;10383295;28;20224;-78
2022/09/16 13:55:47;;;;;;;4.03;3.63;;;18.30;99.90;;;;;;10405316;28;20196;-78
2022/09/16 14:01:04;;;;;;;5.00;4.60;;;18.40;99.90;;;;;;10381922;28;20226;-78
2022/09/16 14:06:37;;;;;;;4.53;4.13;;;18.40;99.90;;;;;;10403433;28;20257;-78
2022/09/16 14:11:48;;;;;;;4.50;4.20;;;18.40;99.90;;;;;;10386115;28;20257;-77
2022/09/16 14:16:50;;;;;;;3.93;3.73;;;18.30;99.90;;;;;;10401490;28;20202;-78
2022/09/16 14:22:03;;;;;;;3.87;3.47;;;18.30;99.90;;;;;;10387034;28;20326;-78
2022/09/16 14:27:06;;;;;;;4.27;4.07;;;18.20;99.90;;;;;;10399146;28;20249;-78
2022/09/16 14:32:13;;;;;;;4.10;3.80;;;18.10;99.90;;;;;;10389553;28;20218;-78
2022/09/16 14:37:17;;;;;;;3.73;3.53;;;18.10;99.90;;;;;;10398542;28;20203;-78
2022/09/16 14:42:21;;;;;;;6.10;5.60;;;18.20;99.90;;;;;;10386360;28;20218;-79
2022/09/16 14:47:29;;;;;;;6.33;5.90;;;18.30;99.90;;;;;;10402847;28;20674;-78
2022/09/16 14:52:34;;;;;;;3.60;3.40;;;18.50;99.90;;;;;;10388168;28;20245;-78
2022/09/16 14:57:37;;;;;;;4.73;4.33;;;18.70;99.90;;;;;;10397440;28;20206;-78
2022/09/16 15:02:44;;;;;;;3.10;2.83;;;18.80;99.90;;;;;;10394789;28;20221;-78
2022/09/16 15:07:49;;;;;;;5.10;3.30;;;18.80;99.90;;;;;;10404711;28;20210;-78
2022/09/16 15:12:54;;;;;;;3.77;3.53;;;18.80;99.90;;;;;;10435580;23;20708;-80
2022/09/16 15:18:01;;;;;;;3.30;3.00;;;18.90;99.90;;;;;;10405189;28;20202;-81
2022/09/16 15:23:06;;;;;;;3.80;3.60;;;18.80;99.90;;;;;;10390714;28;20778;-79
2022/09/16 15:28:17;;;;;;;5.33;4.13;;;18.80;99.90;;;;;;10398072;28;20294;-79
2022/09/16 15:33:29;;;;;;;3.40;3.10;;;18.70;99.90;;;;;;10390436;28;20213;-79
2022/09/16 15:38:33;;;;;;;4.20;3.87;;;18.70;99.90;;;;;;10398570;28;20566;-79
2022/09/16 15:43:38;;;;;;;3.40;3.20;;;18.60;99.90;;;;;;10406529;28;20238;-79
2022/09/16 15:48:45;;;;;;;2.90;2.40;;;18.50;99.90;;;;;;10406681;28;20568;-81
2022/09/16 15:53:50;;;;;;;4.40;4.00;;;18.50;99.90;;;;;;10399188;28;20197;-81
2022/09/16 15:58:59;;;;;;;3.63;3.33;;;18.50;99.90;;;;;;10404096;28;20198;-81
2022/09/16 16:04:04;;;;;;;4.57;4.20;;;18.60;99.90;;;;;;10398241;28;20216;-81
2022/09/16 16:09:07;;;;;;;4.07;3.77;;;18.60;99.90;;;;;;10411748;28;20234;-81
2022/09/16 16:14:09;;;;;;;3.90;3.60;;;18.60;99.90;;;;;;10391772;28;20197;-81
2022/09/16 16:19:12;;;;;;;4.53;4.13;;;18.60;99.90;;;;;;10413917;28;20272;-81
2022/09/16 16:24:16;;;;;;;4.47;4.07;;;18.60;99.90;;;;;;10404528;28;20260;-82
2022/09/16 16:29:18;;;;;;;4.00;3.03;;;18.60;99.90;;;;;;10414368;28;20229;-79
2022/09/16 16:34:20;;;;;;;5.00;3.63;;;18.50;99.90;;;;;;10396889;28;20244;-78
2022/09/16 16:39:24;;;;;;;6.17;3.10;;;18.50;99.60;;;;;;10404749;28;20221;-79
2022/09/16 16:44:26;;;;;;;3.63;3.43;;;18.40;99.90;;;;;;10396160;28;20272;-79
2022/09/16 16:49:28;;;;;;;4.00;3.70;;;18.50;99.90;;;;;;10407882;28;20219;-80
2022/09/16 16:54:32;;;;;;;3.67;3.47;;;18.40;99.90;;;;;;10400451;28;20252;-80
2022/09/16 16:59:34;;;;;;;3.40;3.10;;;18.30;99.90;;;;;;10412034;28;20214;-80
2022/09/16 17:04:36;;;;;;;3.53;3.33;;;18.10;99.90;;;;;;10397419;28;20226;-80
2022/09/16 17:09:40;;;;;;;4.10;3.80;;;17.90;99.90;;;;;;10407711;28;20232;-80
2022/09/16 17:14:42;;;;;;;3.77;3.57;;;17.80;99.90;;;;;;10394297;28;20738;-80
2022/09/16 17:19:44;;;;;;;6.47;3.90;;;17.80;99.90;;;;;;10408037;28;20580;-80
2022/09/16 17:24:47;;;;;;;4.17;3.87;;;17.70;99.90;;;;;;10393303;28;20738;-80
2022/09/16 17:29:49;;;;;;;4.50;4.30;;;17.60;99.90;;;;;;10407561;28;20230;-80
2022/09/16 17:34:51;;;;;;;3.63;3.43;;;17.60;99.90;;;;;;10395254;28;20194;-80
2022/09/16 17:39:55;;;;;;;3.23;3.03;;;17.40;99.90;;;;;;10411830;28;20206;-80
2022/09/16 17:44:58;;;;;;;4.90;4.40;;;17.20;99.90;;;;;;10395568;28;20226;-80
2022/09/16 17:50:04;;;;;;;4.30;4.00;;;17.10;99.90;;;;;;10412877;28;20214;-79
2022/09/16 17:55:08;;;;;;;6.50;6.10;;;16.90;99.90;;;;;;10395142;28;20197;-80
2022/09/16 18:00:10;;;;;;;7.50;7.10;;;16.60;99.90;;;;;;10413148;28;20227;-80
2022/09/16 18:05:16;;;;;;;9.93;9.30;;;16.20;99.90;;;;;;10377447;28;20255;-80
2022/09/16 18:10:19;;;;;;;10.20;9.53;;;15.90;99.90;;;;;;10412171;28;20588;-80
2022/09/16 18:15:21;;;;;;;11.37;10.77;;;15.60;99.90;;;;;;10392388;28;20688;-80
2022/09/16 18:20:24;;;;;;;13.77;13.07;;;15.40;99.90;;;;;;10413121;28;20683;-80
2022/09/16 18:25:27;;;;;;;13.70;12.90;;;15.20;99.90;;;;;;10394221;28;20225;-80
2022/09/16 18:30:30;;;;;;;12.73;11.93;;;15.10;99.90;;;;;;10414638;28;20219;-80
2022/09/16 18:35:35;;;;;;;11.10;10.00;;;15.00;99.90;;;;;;10391544;28;20259;-80
2022/09/16 18:40:39;;;;;;;11.30;10.80;;;15.00;99.90;;;;;;10413733;28;20234;-80
2022/09/16 18:45:41;;;;;;;8.13;7.83;;;14.90;99.90;;;;;;10374861;28;20222;-80
2022/09/16 18:50:43;;;;;;;12.40;11.77;;;14.80;99.90;;;;;;10416109;28;20221;-80
2022/09/16 18:55:46;;;;;;;12.00;11.30;;;14.80;99.90;;;;;;10390453;28;20236;-80
2022/09/16 19:00:49;;;;;;;13.10;12.40;;;14.70;99.90;;;;;;10417574;28;20283;-80
2022/09/16 19:05:55;;;;;;;13.03;12.23;;;14.70;99.90;;;;;;10391810;28;20221;-80
2022/09/16 19:11:03;;;;;;;9.00;8.40;;;14.60;99.90;;;;;;10414033;28;20257;-80
2022/09/16 19:16:06;;;;;;;12.10;11.40;;;14.60;99.90;;;;;;10388459;28;20708;-80
2022/09/16 19:21:15;;;;;;;12.53;11.60;;;14.50;99.90;;;;;;10412901;28;20218;-80
2022/09/16 19:26:18;;;;;;;10.93;10.33;;;14.50;99.90;;;;;;10372115;28;20213;-80
2022/09/16 19:31:20;;;;;;;9.87;9.37;;;14.50;99.90;;;;;;10413671;28;20237;-80
2022/09/16 19:36:25;;;;;;;9.40;8.90;;;14.50;99.90;;;;;;10387168;28;20297;-80
2022/09/16 19:41:29;;;;;;;8.83;8.20;;;14.50;99.90;;;;;;10416181;28;20222;-80
2022/09/16 19:46:35;;;;;;;10.63;9.93;;;14.50;99.90;;;;;;10396953;28;20283;-80
2022/09/16 19:51:37;;;;;;;10.13;9.63;;;14.40;99.90;;;;;;10422888;28;20698;-80
2022/09/16 19:56:41;;;;;;;7.33;6.83;;;14.50;99.90;;;;;;10397456;28;20201;-81
2022/09/16 20:01:43;;;;;;;8.80;8.40;;;14.50;99.90;;;;;;10408438;28;20237;-80
2022/09/16 20:06:45;;;;;;;6.80;6.30;;;14.50;99.90;;;;;;10397022;28;20221;-81
2022/09/16 20:11:49;;;;;;;7.87;7.50;;;14.40;99.90;;;;;;10425516;28;20235;-80
2022/09/16 20:16:51;;;;;;;8.80;8.30;;;14.40;99.90;;;;;;10397664;28;20189;-81
2022/09/16 20:21:53;;;;;;;9.07;8.57;;;14.40;99.90;;;;;;10426067;28;20249;-81
2022/09/16 20:26:57;;;;;;;9.33;8.83;;;14.40;99.90;;;;;;10396449;28;20296;-81
2022/09/16 20:31:59;;;;;;;8.80;8.40;;;14.40;99.90;;;;;;10409021;28;20654;-79
2022/09/16 20:37:01;;;;;;;8.50;8.10;;;14.40;99.90;;;;;;10394496;28;20635;-80
2022/09/16 20:42:05;;;;;;;8.57;8.10;;;14.40;99.90;;;;;;10414912;28;20217;-80
2022/09/16 20:47:07;;;;;;;7.90;7.40;;;14.50;99.90;;;;;;10428103;28;20210;-81
2022/09/16 20:52:09;;;;;;;8.53;8.13;;;14.40;99.90;;;;;;10375594;28;20289;-81
2022/09/16 20:57:12;;;;;;;8.40;7.90;;;14.40;99.90;;;;;;10421267;28;20509;-79
2022/09/16 21:02:14;;;;;;;9.10;8.60;;;14.40;99.90;;;;;;10366386;28;20214;-79
2022/09/16 21:07:16;;;;;;;8.07;7.67;;;14.40;99.90;;;;;;10416837;28;20595;-80
2022/09/16 21:12:20;;;;;;;7.30;7.00;;;14.40;99.90;;;;;;10385133;28;20257;-80
2022/09/16 21:17:22;;;;;;;7.30;7.00;;;14.40;99.90;;;;;;10421454;28;20300;-80
2022/09/16 21:22:24;;;;;;;5.73;5.53;;;14.40;99.90;;;;;;10386026;28;20252;-80
2022/09/16 21:27:31;;;;;;;6.37;6.07;;;14.40;99.90;;;;;;10423718;28;20283;-80
2022/09/16 21:32:33;;;;;;;6.03;5.83;;;14.40;99.90;;;;;;10386885;28;20657;-80
2022/09/16 21:37:35;;;;;;;6.13;5.83;;;14.40;99.90;;;;;;10424364;28;20209;-80
2022/09/16 21:42:39;;;;;;;5.33;5.07;;;14.50;99.90;;;;;;10386599;28;20215;-80
2022/09/16 21:47:43;;;;;;;6.30;5.70;;;14.50;99.90;;;;;;10424603;28;20216;-80
2022/09/16 21:52:45;;;;;;;4.80;4.50;;;14.50;99.90;;;;;;10386853;28;20237;-80
2022/09/16 21:57:48;;;;;;;4.37;4.20;;;14.50;99.90;;;;;;10423918;28;20190;-80
2022/09/16 22:02:50;;;;;;;4.40;4.20;;;14.60;99.90;;;;;;10382747;28;20219;-80
2022/09/16 22:07:52;;;;;;;3.60;3.50;;;14.60;99.90;;;;;;10383705;28;20246;-80
2022/09/16 22:12:56;;;;;;;3.77;3.60;;;14.60;99.90;;;;;;10423880;28;20236;-80
2022/09/16 22:18:01;;;;;;;3.00;2.80;;;14.60;99.90;;;;;;10386271;28;20662;-80
2022/09/16 22:23:03;;;;;;;3.03;2.90;;;14.60;99.90;;;;;;10421987;28;20308;-80
2022/09/16 22:28:06;;;;;;;3.37;3.27;;;14.60;99.90;;;;;;10425202;28;20214;-80
2022/09/16 22:33:08;;;;;;;3.17;3.07;;;14.60;99.90;;;;;;10384308;28;20587;-80
2022/09/16 22:38:10;;;;;;;3.37;3.17;;;14.50;99.90;;;;;;10422423;28;20202;-80
2022/09/16 22:43:14;;;;;;;3.30;3.10;;;14.50;99.90;;;;;;10383848;28;20246;-80
2022/09/16 22:48:16;;;;;;;3.40;3.30;;;14.50;99.90;;;;;;10419393;28;20290;-80
2022/09/16 22:53:18;;;;;;;3.47;3.27;;;14.40;99.90;;;;;;10386020;28;20218;-80
2022/09/16 22:58:21;;;;;;;3.00;2.90;;;14.40;99.90;;;;;;10420283;28;20194;-79
2022/09/16 23:03:23;;;;;;;3.53;3.43;;;14.40;99.90;;;;;;10379936;28;20245;-79
2022/09/16 23:08:26;;;;;;;2.77;2.67;;;14.40;99.90;;;;;;10412134;28;20705;-80
2022/09/16 23:13:33;;;;;;;3.00;2.90;;;14.40;99.90;;;;;;10379902;28;20230;-81
2022/09/16 23:18:35;;;;;;;3.50;3.30;;;14.40;99.90;;;;;;10410692;28;20200;-79
2022/09/16 23:23:39;;;;;;;3.13;2.83;;;14.40;99.90;;;;;;10378868;28;20305;-79
2022/09/16 23:28:43;;;;;;;3.10;2.90;;;14.40;99.90;;;;;;10414908;28;20212;-80
2022/09/16 23:33:45;;;;;;;2.90;2.70;;;14.40;99.90;;;;;;10393199;28;20198;-80
2022/09/16 23:38:48;;;;;;;2.40;2.30;;;14.40;99.90;;;;;;10432096;28;20216;-80
2022/09/16 23:43:51;;;;;;;2.60;2.50;;;14.40;99.90;;;;;;10398827;28;20266;-79
2022/09/16 23:48:54;;;;;;;3.27;2.70;;;14.40;99.90;;;;;;10433591;28;20209;-80
2022/09/16 23:53:57;;;;;;;2.97;2.70;;;14.50;99.90;;;;;;10387286;28;20302;-80
2022/09/16 23:59:00;;;;;;;2.60;2.40;;;14.50;99.90;;;;;;10432590;28;20189;-79
